»·PEaware :: AAY503 KSMX-KLAS

AAY503 :: KSMX-KLAS

FLIGHT INFORMATION

Flight Status: Arrived
Operator:
Allegiant Air
More flights by this operator :: More flights under this callsign
Pilot: Luke W. (11553)
Aircraft: MCDONNELL-DOUGLAS MD-82
(MD82)
More flights by this aircraft type
Origin: KSMX Santa Maria Pub/Capt Hancock
United States
Destination: KLAS McCarran Intl
United States
More flights between these airports :: More routes between these airports
Route: +BUELT4 RZS PMD MISEN KEPEC5
File this flight plan on PilotEdge
Remarks:
Altitude:
(Current/Filed)
27,000ft
Speed:
(Current/Filed)
450kts
Departed: 16-Sep-17 09:37 PM
Arrived: 16-Sep-17 10:37 PM
Distance/Time
Traveled:
269nm/1:00
Distance/Time
To Go:
Arrived

Flight Plot

Page will automatically refresh every two minutes.

Flight plan parsing failed; only flown route is shown


Map Options




Map Legend


Flown Route
Filed Route
Departure Airport
Arrival Airport
Navaid (VOR, NDB)
Fix

Horizontal Profiles

Position Reports

Time Latitude Longitude Heading Altitude Ground
Speed
16-Sep-17 21:00 34.898256 -120.447638 46 268ft 0kts
16-Sep-17 21:01 34.898256 -120.447638 46 268ft 0kts
16-Sep-17 21:02 34.898256 -120.447638 46 268ft 0kts
16-Sep-17 21:03 34.898256 -120.447638 46 268ft 0kts
16-Sep-17 21:04 34.898256 -120.447638 46 268ft 0kts
16-Sep-17 21:05 34.898256 -120.447638 46 268ft 0kts
16-Sep-17 21:06 34.898256 -120.447638 46 268ft 0kts
16-Sep-17 21:07 34.898256 -120.447638 46 268ft 0kts
16-Sep-17 21:08 34.898256 -120.447638 46 268ft 0kts
16-Sep-17 21:09 34.898256 -120.447638 46 268ft 0kts
16-Sep-17 21:10 34.898256 -120.447638 46 268ft 0kts
16-Sep-17 21:11 34.898256 -120.447638 46 268ft 0kts
16-Sep-17 21:12 34.898256 -120.447638 46 268ft 0kts
16-Sep-17 21:13 34.898256 -120.447638 46 268ft 0kts
16-Sep-17 21:14 34.898256 -120.447638 46 268ft 0kts
16-Sep-17 21:15 34.898256 -120.447638 46 268ft 0kts
16-Sep-17 21:16 34.898256 -120.447638 46 268ft 0kts
16-Sep-17 21:17 34.898256 -120.447638 46 268ft 0kts
16-Sep-17 21:18 34.898256 -120.447638 46 268ft 0kts
16-Sep-17 21:19 34.898256 -120.447638 46 268ft 0kts
16-Sep-17 21:20 34.898256 -120.447638 46 268ft 0kts
16-Sep-17 21:21 34.898256 -120.447638 46 268ft 0kts
16-Sep-17 21:22 34.898256 -120.447638 46 268ft 0kts
16-Sep-17 21:23 34.898256 -120.447638 46 268ft 0kts
16-Sep-17 21:24 34.898256 -120.447638 46 268ft 0kts
16-Sep-17 21:25 34.898256 -120.447638 46 268ft 0kts
16-Sep-17 21:26 34.898256 -120.447638 46 268ft 0kts
16-Sep-17 21:27 34.898256 -120.447638 46 268ft 0kts
16-Sep-17 21:28 34.898048 -120.448115 112 268ft 2kts
16-Sep-17 21:29 34.898372 -120.448529 134 268ft 0kts
16-Sep-17 21:30 34.898372 -120.448529 134 268ft 0kts
16-Sep-17 21:31 34.898371 -120.448528 134 268ft 0kts
16-Sep-17 21:32 34.898371 -120.448528 134 268ft 0kts
16-Sep-17 21:33 34.898371 -120.448527 133 268ft 0kts
16-Sep-17 21:34 34.898371 -120.448527 133 268ft 0kts
16-Sep-17 21:35 34.898371 -120.448527 133 268ft 0kts
16-Sep-17 21:36 34.897771 -120.447791 136 268ft 19kts
16-Sep-17 21:37 34.895503 -120.446427 157 268ft 6kts
16-Sep-17 21:38 34.893407 -120.444960 180 268ft 0kts
16-Sep-17 21:39 34.893407 -120.444960 180 268ft 0kts
16-Sep-17 21:40 34.892745 -120.445577 288 268ft 12kts
16-Sep-17 21:41 34.912614 -120.469524 314 360ft 179kts
16-Sep-17 21:42 34.949359 -120.467337 83 2041ft 212kts
16-Sep-17 21:43 34.905902 -120.446986 197 3992ft 268kts
16-Sep-17 21:44 34.836433 -120.424862 148 4613ft 285kts
16-Sep-17 21:45 34.773818 -120.376530 145 5652ft 275kts
16-Sep-17 21:46 34.716809 -120.330099 145 6905ft 305kts
16-Sep-17 21:47 34.656295 -120.274175 115 7987ft 278kts
16-Sep-17 21:48 34.633306 -120.203697 109 9187ft 310kts
16-Sep-17 21:49 34.603707 -120.102302 109 12621ft 336kts
16-Sep-17 21:50 34.575609 -120.003280 109 15638ft 349kts
16-Sep-17 21:51 34.544143 -119.892280 110 18334ft 365kts
16-Sep-17 21:52 34.513570 -119.776339 95 20546ft 386kts
16-Sep-17 21:53 34.519802 -119.645705 88 22474ft 406kts
16-Sep-17 21:54 34.529854 -119.508836 87 24171ft 422kts
16-Sep-17 21:55 34.540398 -119.368808 87 25665ft 437kts
16-Sep-17 21:56 34.547640 -119.271693 87 26569ft 446kts
16-Sep-17 21:57 34.558020 -119.131184 87 26959ft 451kts
16-Sep-17 21:58 34.568799 -118.982867 87 26965ft 449kts
16-Sep-17 21:59 34.578600 -118.836050 81 26975ft 444kts
16-Sep-17 22:00 34.589396 -118.690780 82 26988ft 446kts
16-Sep-17 22:01 34.599562 -118.543893 82 26992ft 446kts
16-Sep-17 22:02 34.609441 -118.397979 82 26975ft 447kts
16-Sep-17 22:03 34.617541 -118.276371 82 26962ft 447kts
16-Sep-17 22:04 34.626748 -118.135791 82 26962ft 448kts
16-Sep-17 22:05 34.651099 -117.998934 68 26962ft 442kts
16-Sep-17 22:06 34.690163 -117.862186 67 26939ft 442kts
16-Sep-17 22:07 34.729469 -117.726158 67 26951ft 442kts
16-Sep-17 22:08 34.769420 -117.587419 67 26971ft 442kts
16-Sep-17 22:09 34.808912 -117.449617 67 26976ft 442kts
16-Sep-17 22:10 34.846318 -117.318486 67 26982ft 442kts
16-Sep-17 22:11 34.884699 -117.183260 67 26930ft 435kts
16-Sep-17 22:12 34.920700 -117.058885 74 24821ft 385kts
16-Sep-17 22:13 34.953056 -116.941158 73 23927ft 374kts
16-Sep-17 22:14 34.986126 -116.822753 73 23911ft 376kts
16-Sep-17 22:15 35.018770 -116.705708 73 23929ft 375kts
16-Sep-17 22:16 35.051532 -116.587775 73 23936ft 374kts
16-Sep-17 22:17 35.085035 -116.466518 73 23994ft 410kts
16-Sep-17 22:18 35.141608 -116.357253 48 23974ft 434kts
16-Sep-17 22:19 35.218727 -116.258372 47 23974ft 434kts
16-Sep-17 22:20 35.301569 -116.154042 47 23961ft 434kts
16-Sep-17 22:21 35.383361 -116.050911 47 23953ft 434kts
16-Sep-17 22:22 35.461860 -115.951697 47 23899ft 383kts
16-Sep-17 22:23 35.528825 -115.866909 48 20119ft 332kts
16-Sep-17 22:24 35.588656 -115.790770 48 15713ft 307kts
16-Sep-17 22:25 35.645007 -115.718873 48 13072ft 305kts
16-Sep-17 22:26 35.703349 -115.644397 48 13027ft 308kts
16-Sep-17 22:27 35.767318 -115.581685 10 13059ft 315kts
16-Sep-17 22:28 35.852802 -115.571411 5 13027ft 316kts
16-Sep-17 22:29 35.938395 -115.564957 14 12991ft 315kts
16-Sep-17 22:30 35.988034 -115.494781 64 11978ft 278kts
16-Sep-17 22:31 36.018195 -115.412230 68 10993ft 270kts
16-Sep-17 22:32 36.026032 -115.327744 94 10348ft 269kts
16-Sep-17 22:33 36.020922 -115.240421 95 9017ft 257kts
16-Sep-17 22:34 36.015474 -115.158055 95 8989ft 234kts
16-Sep-17 22:35 36.011029 -115.077346 93 8059ft 248kts
16-Sep-17 22:36 36.014391 -114.992015 57 6006ft 248kts
16-Sep-17 22:37 36.060282 -114.972271 2 4944ft 216kts
16-Sep-17 22:38 36.080113 -115.021788 250 4093ft 212kts
16-Sep-17 22:39 36.073581 -115.082722 271 2801ft 162kts
16-Sep-17 22:40 36.073652 -115.135184 269 2119ft 140kts
16-Sep-17 22:41 36.074615 -115.150288 300 2118ft 0kts
16-Sep-17 22:42 36.074624 -115.150306 300 2118ft 0kts
16-Sep-17 22:43 36.075785 -115.151618 334 2118ft 14kts
16-Sep-17 22:44 36.079809 -115.151138 358 2118ft 16kts
16-Sep-17 22:45 36.082281 -115.150923 359 2118ft 0kts
16-Sep-17 22:46 36.082281 -115.150923 359 2118ft 0kts
16-Sep-17 22:47 36.082281 -115.150923 359 2118ft 0kts

Navigation Log

Ident Type
Flight plan parsing failed, navigation log unavailable